Time;durP1;ratioP1;P1;durP2;ratioP2;P2;SDS_P1;SDS_P2;PMS_P1;PMS_P2;Temp;Humidity;BMP_temperature;BMP_pressure;BME280_temperature;BME280_humidity;BME280_pressure;Samples;Min_cycle;Max_cycle;Signal;HPM_P1;HPM_P2
2022/04/18 00:00:25;;;;;;;3.33;3.03;;;10.30;99.90;;;;;;5078933;28;20382;-82
2022/04/18 00:03:09;;;;;;;5.33;2.73;;;10.30;99.90;;;;;;5050614;28;20481;-83
2022/04/18 00:05:54;;;;;;;3.70;3.40;;;10.30;99.90;;;;;;5065586;28;20469;-83
2022/04/18 00:08:39;;;;;;;3.83;2.80;;;10.30;99.90;;;;;;5049838;28;20448;-81
2022/04/18 00:11:23;;;;;;;3.10;2.90;;;10.30;99.90;;;;;;5078691;28;20401;-82
2022/04/18 00:14:09;;;;;;;2.73;2.53;;;10.20;99.90;;;;;;5078080;28;20508;-83
2022/04/18 00:16:54;;;;;;;3.20;2.87;;;10.20;99.90;;;;;;5064892;28;20455;-83
2022/04/18 00:19:38;;;;;;;4.17;2.33;;;10.20;99.90;;;;;;5065154;28;20441;-83
2022/04/18 00:22:23;;;;;;;5.20;2.40;;;10.10;99.90;;;;;;5065489;28;20440;-83
2022/04/18 00:25:08;;;;;;;3.43;2.70;;;10.10;99.90;;;;;;5078852;28;20390;-84
2022/04/18 00:27:52;;;;;;;2.60;2.40;;;9.90;99.90;;;;;;5049839;28;20422;-84
2022/04/18 00:30:37;;;;;;;3.20;2.77;;;9.80;99.90;;;;;;5064426;28;20394;-83
2022/04/18 00:33:21;;;;;;;6.10;4.17;;;9.80;99.90;;;;;;5065942;28;20381;-83
2022/04/18 00:36:06;;;;;;;3.77;3.40;;;9.80;99.90;;;;;;5064937;28;20379;-82
2022/04/18 00:38:50;;;;;;;3.27;2.30;;;9.80;99.90;;;;;;5065285;28;20449;-83
2022/04/18 00:41:35;;;;;;;5.83;2.60;;;9.80;99.90;;;;;;5064348;28;20378;-83
2022/04/18 00:44:20;;;;;;;3.97;3.20;;;9.80;99.90;;;;;;5065463;28;20387;-83
2022/04/18 00:47:05;;;;;;;4.23;3.83;;;9.80;99.90;;;;;;5078666;28;20491;-81
2022/04/18 00:49:50;;;;;;;4.63;3.77;;;9.80;99.90;;;;;;5065191;28;20514;-83
2022/04/18 00:52:37;;;;;;;3.43;3.13;;;9.80;99.90;;;;;;5065076;28;20390;-84
2022/04/18 00:55:24;;;;;;;3.30;2.60;;;9.80;99.90;;;;;;5064899;28;20506;-82
2022/04/18 00:58:10;;;;;;;5.83;3.20;;;9.90;99.90;;;;;;5065187;28;20735;-83
2022/04/18 01:00:54;;;;;;;2.60;2.40;;;9.90;99.90;;;;;;5069316;28;20398;-82
2022/04/18 01:03:39;;;;;;;5.70;2.90;;;9.70;99.90;;;;;;5072767;28;20390;-82
2022/04/18 01:06:24;;;;;;;7.47;3.70;;;9.60;99.90;;;;;;5063548;28;20473;-83
2022/04/18 01:09:08;;;;;;;3.10;2.80;;;9.60;99.90;;;;;;5064542;28;20421;-83
2022/04/18 01:11:53;;;;;;;2.67;2.40;;;9.60;99.90;;;;;;5063481;28;20386;-82
2022/04/18 01:14:37;;;;;;;4.50;3.10;;;9.50;99.90;;;;;;5063313;28;20457;-82
2022/04/18 01:17:22;;;;;;;3.23;2.90;;;9.40;99.90;;;;;;5064251;28;20390;-83
2022/04/18 01:20:07;;;;;;;3.20;2.87;;;9.40;99.90;;;;;;5063817;28;20735;-83
2022/04/18 01:22:52;;;;;;;3.67;3.30;;;9.40;99.90;;;;;;5064103;28;20408;-83
2022/04/18 01:31:37;;;;;;;5.67;3.23;;;9.30;99.90;;;;;;5072333;28;20406;-78
2022/04/18 01:34:21;;;;;;;3.93;2.90;;;9.30;99.90;;;;;;5072785;28;20441;-78
2022/04/18 01:37:06;;;;;;;3.70;3.20;;;9.20;99.90;;;;;;5079801;28;20410;-81
2022/04/18 01:39:50;;;;;;;5.27;3.00;;;9.20;99.90;;;;;;5075953;28;20394;-81
2022/04/18 01:42:35;;;;;;;3.23;2.93;;;9.20;99.90;;;;;;5062439;28;20902;-82
2022/04/18 01:45:19;;;;;;;3.80;2.53;;;9.10;99.90;;;;;;5063349;28;20445;-82
2022/04/18 01:48:04;;;;;;;3.63;3.13;;;9.20;99.90;;;;;;5076142;28;20409;-82
2022/04/18 01:50:49;;;;;;;2.67;2.47;;;9.10;99.90;;;;;;5061490;28;20402;-82
2022/04/18 01:53:34;;;;;;;3.50;2.90;;;9.00;99.90;;;;;;5075294;28;20374;-82
2022/04/18 01:56:18;;;;;;;5.27;3.87;;;9.00;99.90;;;;;;5063105;28;20449;-82
2022/04/18 01:59:03;;;;;;;4.70;3.30;;;8.90;99.90;;;;;;5075053;28;20430;-81
2022/04/18 02:01:49;;;;;;;3.70;2.90;;;8.90;99.90;;;;;;5091572;28;20483;-80
2022/04/18 02:04:34;;;;;;;3.37;3.17;;;8.90;99.90;;;;;;5077339;28;20878;-82
2022/04/18 02:07:18;;;;;;;3.50;2.83;;;9.00;99.90;;;;;;5087451;28;20498;-83
2022/04/18 02:10:04;;;;;;;3.70;3.10;;;8.90;99.90;;;;;;5070138;28;20160;-84
2022/04/18 02:12:48;;;;;;;2.90;2.70;;;8.90;99.90;;;;;;5062822;28;20465;-82
2022/04/18 02:15:33;;;;;;;3.30;2.50;;;8.80;99.90;;;;;;5077610;28;20458;-82
2022/04/18 02:18:17;;;;;;;4.50;3.30;;;8.80;99.90;;;;;;5069903;28;20409;-80
2022/04/18 02:21:02;;;;;;;4.83;2.80;;;8.80;99.90;;;;;;5076613;28;20390;-79
2022/04/18 02:23:47;;;;;;;3.93;2.43;;;8.70;99.90;;;;;;5062644;28;20405;-82
2022/04/18 02:26:31;;;;;;;3.90;3.50;;;8.70;99.90;;;;;;5061658;28;20957;-82
2022/04/18 02:29:16;;;;;;;3.20;2.97;;;8.60;99.90;;;;;;5075261;28;20432;-83
2022/04/18 02:35:04;;;;;;;3.00;2.53;;;8.50;99.90;;;;;;5077861;28;20496;-82
2022/04/18 02:37:49;;;;;;;4.00;3.70;;;8.50;99.90;;;;;;5068800;28;20409;-79
2022/04/18 02:40:34;;;;;;;3.87;3.27;;;8.50;99.90;;;;;;5081216;28;20390;-82
2022/04/18 02:43:18;;;;;;;3.27;2.73;;;8.50;99.90;;;;;;5063490;28;20807;-83
2022/04/18 02:46:03;;;;;;;3.90;3.50;;;8.40;99.90;;;;;;5062902;28;20445;-83
2022/04/18 02:48:49;;;;;;;4.87;3.40;;;8.40;99.90;;;;;;5063297;28;20382;-83
2022/04/18 02:51:33;;;;;;;3.30;3.10;;;8.40;99.90;;;;;;5062163;28;20401;-84
2022/04/18 02:54:17;;;;;;;4.07;3.53;;;8.40;99.90;;;;;;5062870;28;20501;-83
2022/04/18 02:57:02;;;;;;;3.13;2.83;;;8.30;99.90;;;;;;5063050;28;20458;-83
2022/04/18 02:59:47;;;;;;;4.40;3.70;;;8.30;99.90;;;;;;5062655;28;20394;-83
2022/04/18 03:02:31;;;;;;;2.87;2.67;;;8.30;99.90;;;;;;5062560;28;20390;-83
2022/04/18 03:05:16;;;;;;;6.13;3.43;;;8.30;99.90;;;;;;5064206;28;20413;-83
2022/04/18 03:08:01;;;;;;;3.03;2.77;;;8.30;99.90;;;;;;5065633;28;20437;-83
2022/04/18 03:13:46;;;;;;;6.20;4.00;;;8.20;99.90;;;;;;5064885;28;20500;-84
2022/04/18 03:16:31;;;;;;;5.90;3.50;;;8.10;99.90;;;;;;5064748;28;20406;-83
2022/04/18 03:19:15;;;;;;;3.27;3.07;;;8.10;99.90;;;;;;5065276;28;20397;-84
2022/04/18 03:22:00;;;;;;;4.50;3.80;;;8.00;99.90;;;;;;5065554;28;20470;-83
2022/04/18 03:24:45;;;;;;;5.17;4.07;;;8.00;99.90;;;;;;5066517;28;20393;-83
2022/04/18 03:27:30;;;;;;;3.53;3.23;;;8.00;99.90;;;;;;5067532;28;20449;-83
2022/04/18 03:30:15;;;;;;;4.63;4.00;;;8.00;99.90;;;;;;5068014;28;20443;-84
2022/04/18 03:33:00;;;;;;;5.10;3.83;;;8.00;99.90;;;;;;5069980;28;20393;-84
2022/04/18 03:41:45;;;;;;;3.83;3.17;;;8.10;99.90;;;;;;5068216;28;20391;-82
2022/04/18 03:44:30;;;;;;;3.47;3.17;;;7.90;99.90;;;;;;5067606;28;20405;-82
2022/04/18 03:47:15;;;;;;;3.03;2.73;;;7.90;99.90;;;;;;5075112;28;20568;-82
2022/04/18 03:49:59;;;;;;;3.70;3.40;;;7.80;99.90;;;;;;5081014;28;20404;-83
2022/04/18 03:52:44;;;;;;;3.93;2.83;;;7.80;99.90;;;;;;5081057;28;20412;-83
2022/04/18 03:55:29;;;;;;;3.73;3.43;;;7.80;99.90;;;;;;5081719;28;20500;-83
2022/04/18 03:58:14;;;;;;;3.07;2.87;;;7.70;99.90;;;;;;5081748;28;20428;-83
2022/04/18 04:00:58;;;;;;;4.50;4.20;;;7.80;99.90;;;;;;5082128;28;20388;-83
2022/04/18 04:03:43;;;;;;;3.00;2.80;;;7.80;99.90;;;;;;5066687;28;20392;-83
2022/04/18 04:06:27;;;;;;;3.13;2.93;;;7.80;99.90;;;;;;5081980;28;20478;-83
2022/04/18 04:09:12;;;;;;;3.40;3.10;;;7.80;99.90;;;;;;5082287;28;20450;-84
2022/04/18 04:11:57;;;;;;;4.73;3.20;;;7.70;99.90;;;;;;5085161;28;20388;-84
2022/04/18 04:14:41;;;;;;;4.20;3.80;;;7.70;99.90;;;;;;5085317;28;20871;-84
2022/04/18 04:17:26;;;;;;;6.67;3.47;;;7.60;99.90;;;;;;5072349;28;20473;-84
2022/04/18 04:20:11;;;;;;;3.37;2.97;;;7.60;99.90;;;;;;5087046;28;20482;-83
2022/04/18 04:22:55;;;;;;;3.13;2.87;;;7.60;99.90;;;;;;5077189;28;20385;-83
2022/04/18 04:25:40;;;;;;;3.27;2.97;;;7.60;99.90;;;;;;5085434;28;20416;-83
2022/04/18 04:28:24;;;;;;;3.97;3.13;;;7.60;99.90;;;;;;5086099;28;20385;-82
2022/04/18 04:31:08;;;;;;;4.23;2.90;;;7.60;99.90;;;;;;5086272;28;20388;-82
2022/04/18 04:33:54;;;;;;;2.70;2.50;;;7.50;99.90;;;;;;5085599;28;20397;-82
2022/04/18 04:36:39;;;;;;;3.33;2.93;;;7.50;99.90;;;;;;5070455;28;20409;-83
2022/04/18 04:39:23;;;;;;;3.50;3.13;;;7.40;99.90;;;;;;5085615;28;20388;-83
2022/04/18 04:42:08;;;;;;;3.60;2.57;;;7.50;99.90;;;;;;5085090;28;20482;-83
2022/04/18 04:44:52;;;;;;;5.93;3.67;;;7.60;99.90;;;;;;5085221;28;20385;-83
2022/04/18 04:47:37;;;;;;;5.20;3.27;;;7.60;99.90;;;;;;5085698;28;20443;-83
2022/04/18 04:50:21;;;;;;;4.97;3.60;;;7.50;99.90;;;;;;5085345;28;20393;-83
2022/04/18 04:53:06;;;;;;;8.87;4.60;;;7.50;99.90;;;;;;5093752;28;20428;-80
2022/04/18 04:55:51;;;;;;;4.73;3.63;;;7.40;99.90;;;;;;5098202;28;20420;-79
2022/04/18 04:58:35;;;;;;;3.90;3.60;;;7.40;99.90;;;;;;5097773;28;20412;-79
2022/04/18 05:01:21;;;;;;;3.60;2.93;;;7.50;99.90;;;;;;5089143;28;20889;-82
2022/04/18 05:04:06;;;;;;;3.63;3.00;;;7.50;99.90;;;;;;5082384;28;20417;-82
2022/04/18 05:06:51;;;;;;;4.47;3.60;;;7.40;99.90;;;;;;5067612;28;20425;-80
2022/04/18 05:09:36;;;;;;;4.00;3.57;;;7.50;99.90;;;;;;5067808;28;20385;-82
2022/04/18 05:12:21;;;;;;;4.27;3.63;;;7.40;99.90;;;;;;5082284;28;20377;-82
2022/04/18 05:15:09;;;;;;;4.30;3.90;;;7.40;99.90;;;;;;5082395;28;20404;-81
2022/04/18 05:17:53;;;;;;;3.60;3.20;;;7.50;99.90;;;;;;5068474;28;20416;-81
2022/04/18 05:20:39;;;;;;;3.30;3.10;;;7.50;99.90;;;;;;5082890;28;20388;-80
2022/04/18 05:23:24;;;;;;;4.70;3.63;;;7.40;99.90;;;;;;5081415;28;20404;-82
2022/04/18 05:26:08;;;;;;;6.37;3.50;;;7.50;99.90;;;;;;5083525;28;20602;-82
2022/04/18 05:28:53;;;;;;;4.20;3.33;;;7.40;99.90;;;;;;5067438;28;20385;-80
2022/04/18 05:31:37;;;;;;;3.57;2.93;;;7.50;99.90;;;;;;5083174;28;20389;-81
2022/04/18 05:34:22;;;;;;;4.50;3.03;;;7.50;99.90;;;;;;5082569;28;20415;-82
2022/04/18 05:37:07;;;;;;;5.00;3.70;;;7.50;99.90;;;;;;5082212;28;20675;-83
2022/04/18 05:39:51;;;;;;;3.17;2.87;;;7.60;99.90;;;;;;5079453;28;20427;-81
2022/04/18 05:42:36;;;;;;;3.60;3.30;;;7.60;99.90;;;;;;5092291;28;20451;-84
2022/04/18 05:45:21;;;;;;;3.50;3.00;;;7.70;99.90;;;;;;5083122;28;20386;-83
2022/04/18 05:48:05;;;;;;;2.73;2.53;;;7.70;99.90;;;;;;5083206;28;20412;-82
2022/04/18 05:50:50;;;;;;;4.00;3.60;;;7.80;99.90;;;;;;5082318;28;20439;-82
2022/04/18 05:53:34;;;;;;;10.27;3.60;;;7.80;99.90;;;;;;5082771;28;20428;-83
2022/04/18 05:56:19;;;;;;;4.80;3.37;;;8.00;99.90;;;;;;5082923;28;20456;-83
2022/04/18 05:59:04;;;;;;;5.77;3.97;;;8.10;99.90;;;;;;5082139;28;20391;-82
2022/04/18 06:01:48;;;;;;;7.07;3.97;;;8.10;99.90;;;;;;5082410;28;20385;-83
2022/04/18 06:04:33;;;;;;;3.90;3.10;;;8.10;99.90;;;;;;5082599;28;20965;-81
2022/04/18 06:07:18;;;;;;;3.33;3.13;;;8.30;99.90;;;;;;5067937;28;20385;-82
2022/04/18 06:10:03;;;;;;;4.07;3.23;;;8.40;99.90;;;;;;5082054;28;20445;-82
2022/04/18 06:12:48;;;;;;;7.17;3.57;;;8.40;99.90;;;;;;5079443;28;20791;-82
2022/04/18 06:15:32;;;;;;;4.27;3.80;;;8.40;99.90;;;;;;5061452;28;20460;-80
2022/04/18 06:18:17;;;;;;;6.07;4.33;;;8.40;99.90;;;;;;5062113;28;20413;-82
2022/04/18 06:21:01;;;;;;;3.50;3.00;;;8.50;99.90;;;;;;5046586;28;20404;-82
2022/04/18 06:23:46;;;;;;;3.50;3.20;;;8.30;99.90;;;;;;5032652;28;20377;-82
2022/04/18 06:26:30;;;;;;;7.20;2.83;;;8.50;99.90;;;;;;5062245;28;20452;-83
2022/04/18 06:29:15;;;;;;;3.67;3.37;;;8.50;99.90;;;;;;5032939;28;20414;-82
2022/04/18 06:32:00;;;;;;;4.90;3.70;;;8.60;99.90;;;;;;5061746;28;20437;-82
2022/04/18 06:34:46;;;;;;;5.33;3.50;;;8.60;99.90;;;;;;5061728;28;20505;-82
2022/04/18 06:37:32;;;;;;;3.60;3.30;;;8.70;99.90;;;;;;5061963;28;20969;-82
2022/04/18 06:40:16;;;;;;;6.33;3.20;;;8.70;99.90;;;;;;5065098;28;20894;-83
2022/04/18 06:43:01;;;;;;;3.53;3.10;;;8.80;99.90;;;;;;5046237;28;20433;-82
2022/04/18 06:45:45;;;;;;;6.60;3.10;;;8.90;99.90;;;;;;5061160;28;20459;-81
2022/04/18 06:48:30;;;;;;;3.40;3.10;;;8.90;99.90;;;;;;5061517;28;20509;-81
2022/04/18 06:51:15;;;;;;;3.67;3.37;;;9.00;99.90;;;;;;5046378;28;20422;-83
2022/04/18 06:53:59;;;;;;;4.33;2.73;;;9.10;99.90;;;;;;5061912;28;20409;-80
2022/04/18 06:59:40;;;;;;;6.23;4.27;;;9.20;99.90;;;;;;5061082;28;20386;-80
2022/04/18 07:02:25;;;;;;;6.73;3.37;;;9.30;99.90;;;;;;5061182;28;20382;-83
2022/04/18 07:05:09;;;;;;;4.83;3.13;;;9.30;99.90;;;;;;5062116;28;20755;-82
2022/04/18 07:07:53;;;;;;;4.27;3.70;;;9.30;99.90;;;;;;5061690;28;20433;-82
2022/04/18 07:10:38;;;;;;;3.03;2.83;;;9.40;99.90;;;;;;5046489;28;20474;-80
2022/04/18 07:13:23;;;;;;;4.03;3.73;;;9.50;99.90;;;;;;5063166;28;20511;-82
2022/04/18 07:16:08;;;;;;;9.03;3.10;;;9.60;99.90;;;;;;5061045;28;20441;-82
2022/04/18 07:18:52;;;;;;;5.03;3.00;;;9.70;99.90;;;;;;5061934;28;20441;-82
2022/04/18 07:21:36;;;;;;;3.40;3.10;;;9.70;99.90;;;;;;5062189;28;20406;-84
2022/04/18 07:24:23;;;;;;;3.80;3.40;;;9.80;99.90;;;;;;5060445;28;20405;-82
2022/04/18 07:27:07;;;;;;;3.73;2.90;;;9.80;99.90;;;;;;5062298;28;20447;-83
2022/04/18 07:29:52;;;;;;;6.03;4.83;;;9.60;99.90;;;;;;5046432;28;20445;-83
2022/04/18 07:32:41;;;;;;;3.87;3.57;;;9.80;99.90;;;;;;5054905;28;20398;-80
2022/04/18 07:35:25;;;;;;;5.33;3.60;;;10.00;99.90;;;;;;5046279;28;20402;-82
2022/04/18 07:41:13;;;;;;;4.50;3.50;;;10.30;99.90;;;;;;5061963;28;20378;-82
2022/04/18 07:43:58;;;;;;;4.43;3.30;;;10.40;99.90;;;;;;5061409;28;20385;-82
2022/04/18 07:46:43;;;;;;;4.20;3.53;;;10.50;99.90;;;;;;5064508;28;20436;-83
2022/04/18 07:49:28;;;;;;;3.93;3.60;;;10.60;99.90;;;;;;5065090;28;20458;-82
2022/04/18 07:52:13;;;;;;;4.40;3.77;;;10.70;99.90;;;;;;5050912;28;20429;-82
2022/04/18 07:54:57;;;;;;;4.20;3.20;;;10.80;99.90;;;;;;5051045;28;20426;-82
2022/04/18 07:57:42;;;;;;;4.07;3.67;;;11.00;99.90;;;;;;5066954;28;20445;-83
2022/04/18 08:00:27;;;;;;;3.33;2.80;;;11.10;99.90;;;;;;5066412;28;20402;-80
2022/04/18 08:03:11;;;;;;;3.67;2.47;;;11.20;99.90;;;;;;5065602;28;20413;-83
2022/04/18 08:05:56;;;;;;;3.67;2.50;;;11.30;99.90;;;;;;5065057;28;20402;-83
2022/04/18 08:08:41;;;;;;;2.90;2.70;;;11.40;99.90;;;;;;5065433;28;20381;-81
2022/04/18 08:11:26;;;;;;;4.17;2.60;;;11.50;99.90;;;;;;5050230;28;20421;-80
2022/04/18 08:14:10;;;;;;;3.27;2.73;;;11.50;99.90;;;;;;5062104;28;20456;-83
2022/04/18 08:17:15;;;;;;;4.83;2.50;;;11.60;99.90;;;;;;5058127;28;20460;-81
2022/04/18 08:19:59;;;;;;;2.60;2.40;;;11.70;99.90;;;;;;5025021;28;20407;-83
2022/04/18 08:22:46;;;;;;;2.73;2.53;;;11.80;99.90;;;;;;5024971;28;20438;-82
2022/04/18 08:25:30;;;;;;;3.30;2.30;;;11.90;99.90;;;;;;5024409;28;20387;-84
2022/04/18 08:28:16;;;;;;;2.07;1.97;;;12.00;99.90;;;;;;5023868;28;20452;-83
2022/04/18 08:31:01;;;;;;;3.90;2.80;;;12.20;99.90;;;;;;5010525;28;20480;-83
2022/04/18 08:33:46;;;;;;;4.17;2.70;;;12.30;99.90;;;;;;5020616;28;20542;-83
2022/04/18 08:36:33;;;;;;;2.97;2.67;;;12.30;99.90;;;;;;4996836;28;20451;-83
2022/04/18 08:39:18;;;;;;;2.10;2.00;;;12.40;99.90;;;;;;5011346;28;20414;-82
2022/04/18 08:42:05;;;;;;;2.23;2.13;;;12.50;99.90;;;;;;5025991;28;20436;-83
2022/04/18 08:44:50;;;;;;;3.10;2.80;;;12.70;99.90;;;;;;5028873;28;20412;-82
2022/04/18 08:53:39;;;;;;;2.70;2.40;;;13.00;99.90;;;;;;5089899;28;20432;-82
2022/04/18 08:56:25;;;;;;;2.20;1.97;;;12.50;99.90;;;;;;5080978;28;20518;-79
2022/04/18 08:59:10;;;;;;;3.40;2.33;;;12.60;98.20;;;;;;5079105;28;20424;-80
2022/04/18 09:01:54;;;;;;;2.80;2.17;;;13.00;99.90;;;;;;5088363;28;20385;-82
2022/04/18 09:04:39;;;;;;;2.70;2.50;;;13.40;97.50;;;;;;5086771;28;20748;-83
2022/04/18 09:07:24;;;;;;;2.63;2.43;;;13.30;95.60;;;;;;5085709;28;20404;-83
2022/04/18 09:10:11;;;;;;;3.10;2.50;;;13.30;98.10;;;;;;5085501;28;20397;-82
2022/04/18 09:13:04;;;;;;;3.37;2.00;;;13.60;95.10;;;;;;5084914;28;20802;-83
2022/04/18 09:15:49;;;;;;;4.40;2.10;;;13.80;93.40;;;;;;5085874;28;20425;-83
2022/04/18 09:18:34;;;;;;;2.27;2.00;;;13.50;91.70;;;;;;5084842;28;20436;-84
2022/04/18 09:21:19;;;;;;;3.50;2.43;;;13.90;93.40;;;;;;5086084;28;20421;-83
2022/04/18 09:24:05;;;;;;;5.20;1.73;;;14.20;97.10;;;;;;5070112;28;20384;-83
2022/04/18 09:26:49;;;;;;;2.50;2.00;;;14.50;97.60;;;;;;5069915;28;20440;-82
2022/04/18 09:29:38;;;;;;;2.33;2.10;;;14.70;91.50;;;;;;5070434;28;20459;-84
2022/04/18 09:32:23;;;;;;;2.30;2.20;;;14.80;85.60;;;;;;5086153;28;20385;-83
2022/04/18 09:35:08;;;;;;;2.50;1.97;;;14.40;83.70;;;;;;5086587;28;20416;-82
2022/04/18 09:37:58;;;;;;;5.57;2.67;;;14.60;83.60;;;;;;5095107;28;20492;-82
2022/04/18 09:40:43;;;;;;;2.40;2.20;;;14.40;84.10;;;;;;5091538;28;20584;-82
2022/04/18 09:43:45;;;;;;;2.37;2.17;;;14.20;79.60;;;;;;5093543;28;20393;-79
2022/04/18 09:46:30;;;;;;;3.30;2.40;;;14.00;80.50;;;;;;5092807;28;20400;-80
2022/04/18 09:49:15;;;;;;;3.47;1.93;;;14.70;82.60;;;;;;5085974;28;20491;-83
2022/04/18 09:52:00;;;;;;;1.73;1.60;;;14.70;74.50;;;;;;5089136;28;20734;-82
2022/04/18 09:54:50;;;;;;;2.10;2.00;;;14.70;73.80;;;;;;5070608;28;20756;-84
2022/04/18 09:57:54;;;;;;;1.73;1.60;;;14.00;76.60;;;;;;5085824;28;20765;-80
2022/04/18 10:00:39;;;;;;;2.03;1.83;;;14.60;78.70;;;;;;5042400;28;20411;-83
2022/04/18 10:03:24;;;;;;;3.30;2.00;;;15.20;83.90;;;;;;5041906;28;20451;-82
2022/04/18 10:06:09;;;;;;;2.30;2.20;;;15.90;81.40;;;;;;5028870;28;20486;-82
2022/04/18 10:08:54;;;;;;;2.67;2.40;;;15.00;72.80;;;;;;5041298;28;20442;-82
2022/04/18 10:11:40;;;;;;;1.50;1.40;;;14.90;70.50;;;;;;5042680;28;20391;-84
2022/04/18 10:14:25;;;;;;;2.27;2.10;;;15.60;77.10;;;;;;5042506;28;20540;-82
2022/04/18 10:17:11;;;;;;;1.60;1.50;;;14.50;69.60;;;;;;5043401;28;20546;-84
2022/04/18 10:20:18;;;;;;;1.40;1.30;;;15.00;72.00;;;;;;4989716;28;20436;-84
2022/04/18 10:23:35;;;;;;;1.67;1.57;;;15.70;73.40;;;;;;5008894;28;20411;-83
2022/04/18 10:26:50;;;;;;;2.07;1.70;;;16.40;70.70;;;;;;5003665;28;20507;-83
2022/04/18 10:29:44;;;;;;;2.00;1.60;;;16.40;67.90;;;;;;5002709;28;20404;-83
2022/04/18 10:32:29;;;;;;;2.00;1.57;;;16.30;68.60;;;;;;5007809;28;20434;-84
2022/04/18 10:35:14;;;;;;;2.00;1.90;;;16.20;66.40;;;;;;5022359;28;20928;-84
2022/04/18 10:38:03;;;;;;;2.53;2.30;;;16.10;67.50;;;;;;5008093;28;20604;-82
2022/04/18 10:40:47;;;;;;;1.97;1.77;;;16.60;66.00;;;;;;5008861;28;20449;-84
2022/04/18 10:44:08;;;;;;;3.00;2.70;;;15.90;59.20;;;;;;5023239;28;20467;-83
2022/04/18 10:47:04;;;;;;;9.53;2.73;;;16.40;63.90;;;;;;5020225;28;20411;-84
2022/04/18 10:50:17;;;;;;;2.40;2.00;;;16.40;63.20;;;;;;5008351;28;20430;-84
2022/04/18 10:53:08;;;;;;;1.90;1.70;;;17.00;64.20;;;;;;5043067;28;20383;-83
2022/04/18 10:56:11;;;;;;;4.70;2.23;;;16.90;63.40;;;;;;5045163;28;20477;-82
2022/04/18 10:58:56;;;;;;;2.10;1.90;;;16.80;66.50;;;;;;5085006;28;20430;-83
2022/04/18 11:01:42;;;;;;;1.73;1.60;;;17.10;65.20;;;;;;5069596;28;20436;-83
2022/04/18 11:04:33;;;;;;;1.60;1.50;;;17.90;63.70;;;;;;5067029;28;20424;-83
2022/04/18 11:07:19;;;;;;;2.13;1.93;;;19.30;59.30;;;;;;5084501;28;20393;-82
2022/04/18 11:10:19;;;;;;;2.20;2.00;;;18.60;62.20;;;;;;5085007;28;20385;-83
2022/04/18 11:13:03;;;;;;;2.07;1.97;;;16.80;58.80;;;;;;5085655;28;20416;-82
2022/04/18 11:15:49;;;;;;;3.10;2.30;;;16.10;58.80;;;;;;5070018;28;20397;-85
2022/04/18 11:18:34;;;;;;;2.40;1.93;;;17.30;64.30;;;;;;5042425;28;20916;-83
2022/04/18 11:21:52;;;;;;;2.60;2.27;;;18.30;59.50;;;;;;5088724;28;20397;-85
2022/04/18 11:24:54;;;;;;;3.00;1.80;;;19.40;63.60;;;;;;5075233;28;20389;-83
2022/04/18 11:27:41;;;;;;;2.23;1.80;;;21.00;58.50;;;;;;5075503;28;20430;-82
2022/04/18 11:30:27;;;;;;;2.37;2.17;;;22.00;53.80;;;;;;5075118;28;20468;-84
2022/04/18 11:33:12;;;;;;;2.37;2.17;;;22.20;51.20;;;;;;5089322;28;20439;-84
2022/04/18 11:36:03;;;;;;;7.53;1.90;;;22.60;49.90;;;;;;5027948;28;20434;-83
2022/04/18 11:38:48;;;;;;;2.20;1.93;;;22.30;50.90;;;;;;5033389;28;20504;-81
2022/04/18 11:41:34;;;;;;;2.70;2.50;;;21.80;49.10;;;;;;5033612;28;20418;-82
2022/04/18 11:44:20;;;;;;;2.90;1.73;;;21.50;48.60;;;;;;5012165;28;20475;-83
2022/04/18 11:47:09;;;;;;;1.60;1.50;;;20.00;48.10;;;;;;5009254;28;20388;-83
2022/04/18 11:49:55;;;;;;;1.97;1.87;;;20.20;50.60;;;;;;5021615;28;20505;-82
2022/04/18 11:52:41;;;;;;;2.47;2.27;;;20.30;50.00;;;;;;5007989;28;20384;-84
2022/04/18 11:55:26;;;;;;;1.90;1.70;;;21.70;50.30;;;;;;5020724;28;20423;-83
2022/04/18 11:58:11;;;;;;;2.00;1.90;;;19.70;47.30;;;;;;5020436;28;20467;-84
2022/04/18 12:07:00;;;;;;;3.13;1.70;;;22.60;48.80;;;;;;5045890;28;20405;-81
2022/04/18 12:09:46;;;;;;;1.93;1.60;;;24.00;47.90;;;;;;5087745;28;20462;-84
2022/04/18 12:12:31;;;;;;;3.10;1.60;;;22.40;44.80;;;;;;5088390;28;20574;-83
2022/04/18 12:15:20;;;;;;;2.30;1.63;;;23.60;45.80;;;;;;5072456;28;20448;-84
2022/04/18 12:18:11;;;;;;;2.70;1.83;;;18.70;45.10;;;;;;5052601;28;20456;-85
2022/04/18 12:20:55;;;;;;;1.50;1.40;;;19.60;49.50;;;;;;5067636;28;20397;-84
2022/04/18 12:23:43;;;;;;;3.23;1.73;;;21.50;46.40;;;;;;5053124;28;20388;-84
2022/04/18 12:26:31;;;;;;;2.33;1.80;;;21.50;44.60;;;;;;5067076;28;20901;-83
2022/04/18 12:29:17;;;;;;;2.17;1.67;;;21.90;47.20;;;;;;5069268;28;20405;-83
2022/04/18 12:32:02;;;;;;;1.90;1.80;;;21.00;45.50;;;;;;5067323;28;20410;-83
2022/04/18 12:34:47;;;;;;;2.20;2.00;;;19.60;46.30;;;;;;5068485;28;20429;-83
2022/04/18 12:37:31;;;;;;;2.03;1.93;;;19.90;47.70;;;;;;5051741;28;20516;-82
2022/04/18 12:40:17;;;;;;;1.60;1.50;;;21.70;48.00;;;;;;5051495;28;20393;-84
2022/04/18 12:43:07;;;;;;;1.97;1.63;;;23.10;44.20;;;;;;5051255;28;20425;-83
2022/04/18 12:45:56;;;;;;;2.50;2.17;;;24.10;44.60;;;;;;5066760;28;20425;-83
2022/04/18 12:48:51;;;;;;;2.80;2.00;;;24.70;44.50;;;;;;5052463;28;20389;-83
2022/04/18 12:51:39;;;;;;;1.53;1.43;;;24.80;45.00;;;;;;5054560;28;20410;-80
2022/04/18 12:54:26;;;;;;;3.60;2.30;;;25.20;43.60;;;;;;5053825;28;20378;-83
2022/04/18 12:57:20;;;;;;;4.23;2.23;;;23.50;41.80;;;;;;5052979;28;20444;-83
2022/04/18 13:00:16;;;;;;;2.43;1.93;;;24.30;42.30;;;;;;5054083;28;20381;-83
2022/04/18 13:03:03;;;;;;;1.97;1.83;;;24.30;45.20;;;;;;5067704;28;20386;-83
2022/04/18 13:05:50;;;;;;;2.03;1.93;;;25.20;42.80;;;;;;5067218;28;20390;-84
2022/04/18 13:08:37;;;;;;;1.70;1.57;;;26.10;41.60;;;;;;5052655;28;20413;-83
2022/04/18 13:11:22;;;;;;;1.97;1.83;;;24.80;40.00;;;;;;5063626;28;20448;-81
2022/04/18 13:14:09;;;;;;;2.10;1.90;;;23.10;39.90;;;;;;5041124;28;20480;-81
2022/04/18 13:17:08;;;;;;;2.10;2.00;;;21.10;43.60;;;;;;5071073;28;20448;-80
2022/04/18 13:19:54;;;;;;;2.20;1.60;;;21.40;41.50;;;;;;5087115;28;20377;-79
2022/04/18 13:22:39;;;;;;;1.43;1.33;;;22.20;44.10;;;;;;5077487;28;20396;-79
2022/04/18 13:25:24;;;;;;;2.90;2.60;;;21.20;44.50;;;;;;5076109;28;20380;-78
2022/04/18 13:28:09;;;;;;;3.47;1.70;;;21.00;44.50;;;;;;5076082;28;20536;-78
2022/04/18 13:30:53;;;;;;;2.20;1.90;;;21.20;43.40;;;;;;5076381;28;20412;-78
2022/04/18 13:33:38;;;;;;;2.07;1.97;;;21.10;43.10;;;;;;5086838;28;20500;-81
2022/04/18 13:36:30;;;;;;;2.57;1.70;;;21.30;44.00;;;;;;5085256;28;20395;-81
2022/04/18 13:39:15;;;;;;;2.17;2.07;;;21.90;45.20;;;;;;5073215;28;20407;-82
2022/04/18 13:42:03;;;;;;;2.70;1.53;;;21.10;46.50;;;;;;5084851;28;20479;-80
2022/04/18 13:44:48;;;;;;;1.77;1.63;;;22.90;46.20;;;;;;5054026;28;20397;-81
2022/04/18 13:47:34;;;;;;;2.27;2.07;;;24.30;45.10;;;;;;5067352;28;20448;-78
2022/04/18 13:50:19;;;;;;;2.10;1.90;;;25.00;45.50;;;;;;5064803;28;20456;-81
2022/04/18 13:53:03;;;;;;;2.00;1.90;;;23.90;41.90;;;;;;5065600;28;20396;-81
2022/04/18 13:55:48;;;;;;;2.13;1.90;;;23.70;42.80;;;;;;5064945;28;20435;-80
2022/04/18 13:58:32;;;;;;;2.07;1.90;;;24.80;43.10;;;;;;5080426;28;20412;-80
2022/04/18 14:01:17;;;;;;;2.00;1.77;;;25.20;42.90;;;;;;5066364;28;20542;-80
2022/04/18 14:04:08;;;;;;;2.53;1.90;;;24.70;42.00;;;;;;5121966;27;20301;-80
2022/04/18 14:06:53;;;;;;;1.90;1.80;;;25.30;44.00;;;;;;5094799;28;20413;-79
2022/04/18 14:09:38;;;;;;;1.83;1.73;;;25.20;42.00;;;;;;5108509;28;20421;-81
2022/04/18 14:12:23;;;;;;;2.20;2.00;;;25.30;43.20;;;;;;5102756;28;20394;-81
2022/04/18 14:21:07;;;;;;;1.70;1.60;;;25.20;41.40;;;;;;5117935;28;20461;-83
2022/04/18 14:23:52;;;;;;;2.20;2.03;;;24.40;42.50;;;;;;5117628;28;20449;-81
2022/04/18 14:26:36;;;;;;;1.87;1.77;;;24.50;42.10;;;;;;5102090;28;20387;-82
2022/04/18 14:29:21;;;;;;;1.57;1.47;;;23.20;42.10;;;;;;5102672;28;20387;-80
2022/04/18 14:32:06;;;;;;;3.20;1.93;;;23.60;42.80;;;;;;5118565;28;20407;-81
2022/04/18 14:34:50;;;;;;;2.00;1.80;;;22.90;42.40;;;;;;5118377;28;20802;-81
2022/04/18 14:37:38;;;;;;;2.40;2.03;;;24.10;43.70;;;;;;5122928;28;20165;-79
2022/04/18 14:40:22;;;;;;;1.63;1.53;;;24.30;41.80;;;;;;5125598;28;20391;-80
2022/04/18 14:43:07;;;;;;;1.60;1.50;;;24.30;42.50;;;;;;5126356;28;20453;-79
2022/04/18 14:45:52;;;;;;;4.57;1.73;;;24.20;42.90;;;;;;5123905;28;20402;-81
2022/04/18 14:48:36;;;;;;;2.47;2.27;;;24.90;44.40;;;;;;5105901;28;20492;-80
2022/04/18 14:51:24;;;;;;;2.00;1.90;;;24.90;43.00;;;;;;5102552;28;20475;-81
2022/04/18 14:54:09;;;;;;;2.60;1.93;;;24.70;42.10;;;;;;5118691;28;20475;-80
2022/04/18 14:56:53;;;;;;;1.67;1.57;;;24.50;43.70;;;;;;5095557;28;20439;-79
2022/04/18 14:59:39;;;;;;;2.07;1.80;;;24.50;42.80;;;;;;5096180;28;20383;-80
2022/04/18 15:02:23;;;;;;;1.83;1.73;;;23.00;44.30;;;;;;5096952;28;20495;-82
2022/04/18 15:05:09;;;;;;;3.03;2.37;;;23.80;44.80;;;;;;5097822;28;20367;-81
2022/04/18 15:07:55;;;;;;;2.10;1.90;;;23.60;46.30;;;;;;5096577;28;20442;-79
2022/04/18 15:10:40;;;;;;;1.67;1.57;;;24.10;44.40;;;;;;5098249;28;20466;-79